createdAt,value
2023-05-05T00:00:10.119Z,95443.22
2023-05-05T00:03:54.217Z,95442.88
2023-05-05T00:07:36.976Z,95439.44
2023-05-05T00:11:19.658Z,95435.84
2023-05-05T00:15:02.388Z,95434.47
2023-05-05T00:18:45.743Z,95436.97
2023-05-05T00:22:29.912Z,95439.81
2023-05-05T00:26:12.594Z,95428.72
2023-05-05T00:29:55.307Z,95434.06
2023-05-05T00:33:38.129Z,95430.66
2023-05-05T00:37:20.841Z,95433.47
2023-05-05T00:41:05.336Z,95435.03
2023-05-05T00:44:48.015Z,95434.38
2023-05-05T00:48:31.332Z,95432.97
2023-05-05T00:52:14.131Z,95420.00
2023-05-05T00:55:57.018Z,95426.56
2023-05-05T00:59:41.973Z,95421.38
2023-05-05T01:03:24.905Z,95421.88
2023-05-05T01:07:13.107Z,95412.78
2023-05-05T01:11:03.915Z,95407.50
2023-05-05T01:14:52.923Z,95411.75
2023-05-05T01:18:40.055Z,95410.09
2023-05-05T01:22:26.072Z,95412.75
2023-05-05T01:26:28.228Z,95406.22
2023-05-05T01:30:21.771Z,95408.06
2023-05-05T01:34:09.760Z,95408.09
2023-05-05T01:37:55.603Z,95409.13
2023-05-05T01:41:41.779Z,95414.19
2023-05-05T01:45:27.361Z,95402.81
2023-05-05T01:49:12.783Z,95409.28
2023-05-05T01:52:56.537Z,95401.41
2023-05-05T01:56:40.249Z,95410.94
2023-05-05T02:00:25.088Z,95415.84
2023-05-05T02:04:09.774Z,95409.94
2023-05-05T02:07:56.750Z,95413.22
2023-05-05T02:11:39.842Z,95419.09
2023-05-05T02:15:23.452Z,95419.94
2023-05-05T02:19:06.600Z,95420.00
2023-05-05T02:22:49.700Z,95416.00
2023-05-05T02:26:36.639Z,95418.66
2023-05-05T02:30:20.961Z,95413.19
2023-05-05T02:34:05.520Z,95417.22
2023-05-05T02:38:02.501Z,95415.59
2023-05-05T02:41:47.644Z,95415.97
2023-05-05T02:45:30.472Z,95424.06
2023-05-05T02:49:14.236Z,95423.25
2023-05-05T02:52:57.136Z,95420.38
2023-05-05T02:56:42.409Z,95412.47
2023-05-05T03:00:38.338Z,95416.97
2023-05-05T03:04:26.209Z,95418.78
2023-05-05T03:08:12.021Z,95427.31
2023-05-05T03:12:00.142Z,95424.69
2023-05-05T03:15:48.034Z,95428.19
2023-05-05T03:19:31.816Z,95424.72
2023-05-05T03:23:14.656Z,95427.38
2023-05-05T03:26:57.690Z,95429.81
2023-05-05T03:30:40.682Z,95423.97
2023-05-05T03:34:24.719Z,95419.28
2023-05-05T03:38:07.365Z,95418.25
2023-05-05T03:41:49.984Z,95421.03
2023-05-05T03:45:33.142Z,95422.03
2023-05-05T03:49:15.932Z,95442.28
2023-05-05T03:52:59.909Z,95433.78
2023-05-05T03:56:42.559Z,95437.81
2023-05-05T04:00:25.216Z,95424.84
2023-05-05T04:04:09.406Z,95426.41
2023-05-05T04:07:52.120Z,95422.34
2023-05-05T04:11:36.138Z,95439.34
2023-05-05T04:15:18.824Z,95429.19
2023-05-05T04:19:01.671Z,95432.03
2023-05-05T04:22:44.430Z,95431.22
2023-05-05T04:26:27.720Z,95430.00
2023-05-05T04:30:12.757Z,95433.28
2023-05-05T04:33:55.411Z,95442.38
2023-05-05T04:37:38.139Z,95449.88
2023-05-05T04:41:21.414Z,95440.94
2023-05-05T04:45:04.173Z,95450.22
2023-05-05T04:48:48.323Z,95449.78
2023-05-05T04:52:31.023Z,95448.72
2023-05-05T04:56:13.702Z,95449.72
2023-05-05T04:59:56.420Z,95450.44
2023-05-05T05:03:39.253Z,95458.06
2023-05-05T05:07:23.482Z,95459.44
2023-05-05T05:11:06.474Z,95458.84
2023-05-05T05:14:49.211Z,95464.91
2023-05-05T05:18:32.020Z,95458.78
2023-05-05T05:22:14.753Z,95457.13
2023-05-05T05:25:58.977Z,95465.03
2023-05-05T05:29:41.672Z,95465.63
2023-05-05T05:33:24.398Z,95467.41
2023-05-05T05:37:07.095Z,95474.03
2023-05-05T05:40:49.818Z,95468.28
2023-05-05T05:44:34.848Z,95477.38
2023-05-05T05:48:18.406Z,95467.69
2023-05-05T05:52:01.078Z,95472.84
2023-05-05T05:55:43.737Z,95473.16
2023-05-05T05:59:26.703Z,95478.75
2023-05-05T06:03:11.025Z,95479.78
2023-05-05T06:06:53.909Z,95481.69
2023-05-05T06:10:36.575Z,95487.72
2023-05-05T06:14:20.146Z,95490.50
2023-05-05T06:18:02.956Z,95486.38
2023-05-05T06:21:47.010Z,95485.13
2023-05-05T06:25:29.651Z,95481.81
2023-05-05T06:29:14.517Z,95488.22
2023-05-05T06:32:57.330Z,95480.66
2023-05-05T06:36:40.065Z,95490.72
2023-05-05T06:40:24.214Z,95496.31
2023-05-05T06:44:06.942Z,95498.53
2023-05-05T06:47:49.963Z,95489.38
2023-05-05T06:51:32.785Z,95489.41
2023-05-05T06:55:15.765Z,95490.00
2023-05-05T06:58:59.792Z,95487.59
2023-05-05T07:02:42.711Z,95492.31
2023-05-05T07:06:25.534Z,95501.94
2023-05-05T07:10:09.663Z,95501.22
2023-05-05T07:13:52.731Z,95499.59
2023-05-05T07:17:36.796Z,95491.50
2023-05-05T07:21:19.802Z,95492.28
2023-05-05T07:25:03.105Z,95499.59
2023-05-05T07:28:46.353Z,95495.31
2023-05-05T07:32:29.128Z,95488.41
2023-05-05T07:36:13.581Z,95487.75
2023-05-05T07:39:56.303Z,95491.25
2023-05-05T07:43:42.296Z,95488.75
2023-05-05T07:47:26.760Z,95492.06
2023-05-05T07:51:09.593Z,95485.19
2023-05-05T07:54:53.679Z,95483.78
2023-05-05T07:58:36.533Z,95489.72
2023-05-05T08:02:19.371Z,95491.47
2023-05-05T08:06:08.445Z,95477.91
2023-05-05T08:09:51.129Z,95476.50
2023-05-05T08:13:35.482Z,95485.16
2023-05-05T08:17:20.826Z,95489.84
2023-05-05T08:21:03.598Z,95468.31
2023-05-05T08:24:46.313Z,95469.84
2023-05-05T08:28:29.919Z,95484.31
2023-05-05T08:32:16.187Z,95475.34
2023-05-05T08:35:59.018Z,95470.53
2023-05-05T08:39:41.813Z,95472.75
2023-05-05T08:43:24.560Z,95468.59
2023-05-05T08:47:07.396Z,95476.34
2023-05-05T08:50:57.264Z,95471.91
2023-05-05T08:54:44.949Z,95470.28
2023-05-05T08:58:29.020Z,95480.44
2023-05-05T09:02:12.936Z,95472.53
2023-05-05T09:05:57.307Z,95478.88
2023-05-05T09:09:40.023Z,95482.78
2023-05-05T09:13:22.836Z,95471.19
2023-05-05T09:17:06.123Z,95477.34
2023-05-05T09:20:49.061Z,95479.31
2023-05-05T09:24:33.334Z,95472.44
2023-05-05T09:28:18.269Z,95462.28
2023-05-05T09:32:05.681Z,95466.59
2023-05-05T09:35:50.318Z,95459.13
2023-05-05T09:39:34.421Z,95461.25
2023-05-05T09:43:17.919Z,95454.00
2023-05-05T09:47:00.705Z,95449.47
2023-05-05T09:50:44.569Z,95448.41
2023-05-05T09:54:28.483Z,95454.00
2023-05-05T09:58:23.618Z,95450.88
2023-05-05T10:02:12.679Z,95449.03
2023-05-05T10:05:56.476Z,95437.59
2023-05-05T10:09:39.354Z,95438.44
2023-05-05T10:13:24.804Z,95433.09
2023-05-05T10:17:08.290Z,95437.13
2023-05-05T10:20:58.618Z,95433.66
2023-05-05T10:24:44.466Z,95430.97
2023-05-05T10:28:33.719Z,95429.97
2023-05-05T10:32:50.973Z,95431.03
2023-05-05T10:36:26.447Z,95421.94
2023-05-05T10:40:10.890Z,95412.31
2023-05-05T10:43:57.167Z,95412.34
2023-05-05T10:47:40.804Z,95413.44
2023-05-05T10:51:39.457Z,95403.47
2023-05-05T10:55:29.268Z,95406.41
2023-05-05T11:03:30.518Z,95386.06
2023-05-05T11:07:23.717Z,95395.63
2023-05-05T11:11:07.051Z,95394.50
2023-05-05T11:15:29.683Z,95384.66
2023-05-05T11:19:48.152Z,95376.56
2023-05-05T11:23:31.307Z,95375.16
2023-05-05T11:27:14.103Z,95371.97
2023-05-05T11:31:23.133Z,95374.16
2023-05-05T11:35:07.177Z,95361.75
2023-05-05T11:38:57.972Z,95365.69
2023-05-05T11:42:40.778Z,95353.13
2023-05-05T11:46:24.889Z,95352.47
2023-05-05T11:50:18.697Z,95345.44
2023-05-05T11:54:01.543Z,95345.44
2023-05-05T11:57:44.316Z,95350.50
2023-05-05T12:01:28.331Z,95336.72
2023-05-05T12:05:11.054Z,95337.63
2023-05-05T12:08:53.804Z,95333.31
2023-05-05T12:12:38.149Z,95337.69
2023-05-05T12:16:21.443Z,95326.38
2023-05-05T12:20:06.662Z,95322.06
2023-05-05T12:23:49.661Z,95329.06
2023-05-05T12:27:32.476Z,95324.50
2023-05-05T12:31:15.947Z,95324.66
2023-05-05T12:34:58.704Z,95312.38
2023-05-05T12:38:43.051Z,95321.53
2023-05-05T12:42:25.989Z,95314.63
2023-05-05T12:46:11.790Z,95315.91
2023-05-05T12:49:54.640Z,95301.38
2023-05-05T12:53:37.376Z,95298.41
2023-05-05T12:57:21.781Z,95302.38
2023-05-05T13:01:11.286Z,95295.78
2023-05-05T13:04:54.925Z,95284.94
2023-05-05T13:08:43.613Z,95296.13
2023-05-05T13:12:27.660Z,95277.50
2023-05-05T13:16:10.485Z,95274.63
2023-05-05T13:19:53.128Z,95270.25
2023-05-05T13:23:35.940Z,95259.97
2023-05-05T13:27:18.636Z,95256.44
2023-05-05T13:31:02.738Z,95247.88
2023-05-05T13:34:45.345Z,95240.13
2023-05-05T13:38:28.033Z,95241.97
2023-05-05T13:42:10.993Z,95234.38
2023-05-05T13:45:58.668Z,95227.59
2023-05-05T13:49:50.036Z,95223.00
2023-05-05T13:53:32.953Z,95220.41
2023-05-05T13:57:15.654Z,95212.16
2023-05-05T14:00:58.322Z,95211.56
2023-05-05T14:04:41.403Z,95203.88
2023-05-05T14:08:28.543Z,95201.88
2023-05-05T14:12:11.245Z,95212.00
2023-05-05T14:15:53.902Z,95196.50
2023-05-05T14:19:36.589Z,95192.97
2023-05-05T14:23:19.266Z,95186.38
2023-05-05T14:27:04.407Z,95187.47
2023-05-05T14:30:49.688Z,95188.00
2023-05-05T14:34:32.459Z,95185.06
2023-05-05T14:38:15.275Z,95178.66
2023-05-05T14:41:58.082Z,95178.75
2023-05-05T14:45:42.199Z,95186.31
2023-05-05T14:49:25.219Z,95182.25
2023-05-05T14:53:08.595Z,95170.16
2023-05-05T14:56:51.421Z,95173.56
2023-05-05T15:00:34.152Z,95166.72
2023-05-05T15:04:18.378Z,95162.97
2023-05-05T15:08:01.032Z,95168.59
2023-05-05T15:11:45.250Z,95163.97
2023-05-05T15:15:28.022Z,95166.59
2023-05-05T15:19:10.749Z,95172.81
2023-05-05T15:22:54.963Z,95170.50
2023-05-05T15:26:37.729Z,95176.84
2023-05-05T15:30:20.632Z,95162.69
2023-05-05T15:34:03.430Z,95164.78
2023-05-05T15:37:46.226Z,95154.81
2023-05-05T15:41:30.301Z,95145.69
2023-05-05T15:45:13.166Z,95144.47
2023-05-05T15:48:55.850Z,95151.22
2023-05-05T15:52:38.583Z,95151.16
2023-05-05T15:56:21.397Z,95145.06
2023-05-05T16:00:06.488Z,95141.78
2023-05-05T16:03:49.265Z,95139.69
2023-05-05T16:07:31.986Z,95142.41
2023-05-05T16:11:14.641Z,95135.88
2023-05-05T16:14:57.430Z,95145.06
2023-05-05T16:18:41.415Z,95142.34
2023-05-05T16:22:24.091Z,95120.31
2023-05-05T16:26:09.584Z,95116.91
2023-05-05T16:29:53.301Z,95119.16
2023-05-05T16:33:40.516Z,95126.75
2023-05-05T16:37:24.601Z,95118.16
2023-05-05T16:41:08.178Z,95107.97
2023-05-05T16:44:51.002Z,95120.22
2023-05-05T16:48:33.670Z,95118.91
2023-05-05T16:52:16.371Z,95125.72
2023-05-05T16:56:00.752Z,95128.63
2023-05-05T16:59:43.440Z,95127.09
2023-05-05T17:03:26.427Z,95117.56
2023-05-05T17:07:09.119Z,95113.25
2023-05-05T17:10:51.808Z,95105.53
2023-05-05T17:14:35.882Z,95098.88
2023-05-05T17:18:20.108Z,95091.66
2023-05-05T17:22:02.995Z,95095.19
2023-05-05T17:25:45.752Z,95103.00
2023-05-05T17:29:28.518Z,95093.34
2023-05-05T17:33:12.564Z,95082.69
2023-05-05T17:36:55.212Z,95086.69
2023-05-05T17:40:37.906Z,95071.69
2023-05-05T17:44:20.669Z,95069.47
2023-05-05T17:48:03.347Z,95063.16
2023-05-05T17:51:47.445Z,95063.59
2023-05-05T17:55:30.171Z,95050.09
2023-05-05T17:59:12.892Z,95045.66
2023-05-05T18:02:55.732Z,95043.41
2023-05-05T18:06:38.474Z,95039.00
2023-05-05T18:10:23.282Z,95041.00
2023-05-05T18:14:05.933Z,95060.59
2023-05-05T18:17:48.568Z,95091.94
2023-05-05T18:21:31.983Z,95090.34
2023-05-05T18:25:14.682Z,95085.59
2023-05-05T18:28:58.891Z,95083.50
2023-05-05T18:32:41.669Z,95124.16
2023-05-05T18:36:24.515Z,95135.91
2023-05-05T18:40:09.901Z,95131.66
2023-05-05T18:43:52.690Z,95131.13
2023-05-05T18:47:38.628Z,95170.16
2023-05-05T18:51:21.395Z,95291.47
2023-05-05T18:55:04.532Z,95434.03
2023-05-05T18:58:47.545Z,95534.81
2023-05-05T19:02:30.256Z,95467.19
2023-05-05T19:06:14.332Z,95410.63
2023-05-05T19:09:57.007Z,95403.97
2023-05-05T19:13:40.686Z,95411.94
2023-05-05T19:17:23.467Z,95422.03
2023-05-05T19:21:06.203Z,95462.63
2023-05-05T19:24:50.247Z,95487.47
2023-05-05T19:28:32.986Z,95489.53
2023-05-05T19:32:16.005Z,95470.84
2023-05-05T19:35:58.724Z,95471.91
2023-05-05T19:39:43.301Z,95454.13
2023-05-05T19:43:27.369Z,95447.69
2023-05-05T19:47:10.986Z,95467.53
2023-05-05T19:50:56.911Z,95470.78
2023-05-05T19:54:39.664Z,95469.56
2023-05-05T19:58:22.435Z,95455.00
2023-05-05T20:02:06.528Z,95445.47
2023-05-05T20:05:49.208Z,95451.34
2023-05-05T20:09:31.917Z,95460.25
2023-05-05T20:13:14.748Z,95448.91
2023-05-05T20:16:57.496Z,95456.00
2023-05-05T20:20:42.130Z,95451.72
2023-05-05T20:24:24.892Z,95452.53
2023-05-05T20:28:07.709Z,95453.34
2023-05-05T20:31:50.463Z,95455.75
2023-05-05T20:35:33.261Z,95463.84
2023-05-05T20:39:17.294Z,95469.09
2023-05-05T20:43:00.230Z,95473.56
2023-05-05T20:46:43.024Z,95459.78
2023-05-05T20:50:25.720Z,95455.34
2023-05-05T20:54:09.990Z,95445.41
2023-05-05T20:57:54.079Z,95449.25
2023-05-05T21:01:36.821Z,95449.44
2023-05-05T21:05:19.844Z,95447.41
2023-05-05T21:09:02.514Z,95443.13
2023-05-05T21:12:45.181Z,95434.63
2023-05-05T21:16:29.257Z,95427.72
2023-05-05T21:20:13.290Z,95423.84
2023-05-05T21:23:57.637Z,95428.69
2023-05-05T21:27:40.669Z,95434.97
2023-05-05T21:31:23.395Z,95428.09
2023-05-05T21:35:09.504Z,95429.13
2023-05-05T21:38:55.203Z,95437.19
2023-05-05T21:42:37.903Z,95422.41
2023-05-05T21:46:20.617Z,95423.81
2023-05-05T21:50:03.587Z,95416.72
2023-05-05T21:53:47.694Z,95428.88
2023-05-05T21:57:30.585Z,95419.94
2023-05-05T22:01:13.365Z,95419.72
2023-05-05T22:04:56.129Z,95420.72
2023-05-05T22:08:38.863Z,95421.31
2023-05-05T22:12:22.911Z,95420.72
2023-05-05T22:16:05.820Z,95424.78
2023-05-05T22:19:48.495Z,95417.03
2023-05-05T22:23:31.385Z,95421.09
2023-05-05T22:27:14.031Z,95417.44
2023-05-05T22:30:58.088Z,95423.13
2023-05-05T22:34:40.884Z,95418.66
2023-05-05T22:38:23.686Z,95411.75
2023-05-05T22:42:07.023Z,95417.03
2023-05-05T22:45:54.970Z,95409.53
2023-05-05T22:49:40.736Z,95414.59
2023-05-05T22:53:24.039Z,95413.19
2023-05-05T22:57:08.045Z,95408.91
2023-05-05T23:00:55.042Z,95407.94
2023-05-05T23:04:39.295Z,95411.75
2023-05-05T23:08:24.012Z,95411.75
2023-05-05T23:12:07.005Z,95404.88
2023-05-05T23:15:50.020Z,95406.47
2023-05-05T23:19:33.117Z,95398.56
2023-05-05T23:23:20.608Z,95399.16
2023-05-05T23:27:03.547Z,95399.56
2023-05-05T23:30:49.624Z,95400.75
2023-05-05T23:34:32.642Z,95389.13
2023-05-05T23:38:16.196Z,95399.91
2023-05-05T23:42:01.331Z,95386.91
2023-05-05T23:45:45.050Z,95388.53
2023-05-05T23:49:29.375Z,95398.06
2023-05-05T23:53:12.222Z,95385.69
2023-05-05T23:56:55.121Z,95387.03
